createdAt,value
2023-09-18T00:03:28.715Z,19.87
2023-09-18T00:13:33.742Z,20.08
2023-09-18T00:23:37.429Z,20.05
2023-09-18T00:33:42.888Z,20.13
2023-09-18T00:43:46.536Z,20.11
2023-09-18T00:53:51.816Z,19.97
2023-09-18T01:03:55.750Z,19.85
2023-09-18T01:14:11.652Z,19.74
2023-09-18T01:24:16.675Z,19.71
2023-09-18T01:34:22.210Z,19.78
2023-09-18T01:44:27.516Z,19.68
2023-09-18T01:54:31.731Z,19.88
2023-09-18T02:05:05.548Z,20.03
2023-09-18T02:15:02.212Z,20.14
2023-09-18T02:25:09.256Z,20.23
2023-09-18T02:35:13.427Z,20.20
2023-09-18T02:45:18.653Z,20.19
2023-09-18T02:55:22.771Z,20.22
2023-09-18T03:05:27.902Z,20.17
2023-09-18T03:15:31.999Z,20.03
2023-09-18T03:25:48.765Z,19.83
2023-09-18T03:35:59.046Z,19.78
2023-09-18T03:46:08.179Z,19.79
2023-09-18T03:56:12.081Z,19.79
2023-09-18T04:06:17.159Z,19.64
2023-09-18T04:16:20.873Z,19.43
2023-09-18T04:26:30.476Z,19.41
2023-09-18T04:36:34.768Z,19.41
2023-09-18T04:46:40.036Z,19.38
2023-09-18T04:56:43.708Z,19.46
2023-09-18T05:06:48.925Z,19.40
2023-09-18T05:16:52.744Z,19.40
2023-09-18T05:26:57.891Z,19.39
2023-09-18T05:37:01.637Z,19.60
2023-09-18T05:47:07.131Z,19.69
2023-09-18T05:57:10.862Z,19.79
2023-09-18T06:07:16.061Z,20.01
2023-09-18T06:17:20.116Z,20.06
2023-09-18T06:27:25.102Z,20.07
2023-09-18T06:37:28.840Z,20.12
2023-09-18T06:47:33.886Z,20.27
2023-09-18T06:57:37.677Z,20.43
2023-09-18T07:07:42.768Z,20.72
2023-09-18T07:17:46.532Z,20.94
2023-09-18T07:27:51.918Z,21.03
2023-09-18T07:37:55.949Z,21.00
2023-09-18T07:48:03.820Z,21.05
2023-09-18T07:58:07.708Z,21.23
2023-09-18T08:08:12.793Z,21.48
2023-09-18T08:18:16.727Z,22.07
2023-09-18T08:28:22.192Z,22.46
2023-09-18T08:38:26.149Z,22.61
2023-09-18T08:48:36.042Z,22.82
2023-09-18T08:58:43.318Z,22.77
2023-09-18T09:08:48.425Z,23.00
2023-09-18T09:18:53.510Z,22.78
2023-09-18T09:28:58.677Z,22.73
2023-09-18T09:39:06.048Z,22.71
2023-09-18T09:49:11.073Z,22.45
2023-09-18T09:59:17.087Z,22.21
2023-09-18T10:09:24.722Z,22.30
2023-09-18T10:19:36.819Z,22.52
2023-09-18T10:29:45.454Z,22.66
2023-09-18T10:39:51.496Z,22.77
2023-09-18T10:49:56.708Z,23.02
2023-09-18T11:00:00.737Z,22.98
2023-09-18T11:10:30.322Z,23.32
2023-09-18T11:20:34.600Z,23.34
2023-09-18T11:30:40.618Z,23.43
2023-09-18T11:40:47.119Z,23.87
2023-09-18T11:50:53.602Z,23.75
2023-09-18T12:00:57.452Z,23.80
2023-09-18T12:11:07.053Z,24.27
2023-09-18T12:21:10.732Z,23.91
2023-09-18T12:31:17.370Z,24.04
2023-09-18T12:41:21.504Z,24.52
2023-09-18T12:51:34.074Z,25.02
2023-09-18T13:01:39.249Z,25.10
2023-09-18T13:11:57.530Z,25.59
2023-09-18T13:22:01.217Z,25.31
2023-09-18T13:32:07.398Z,24.96
2023-09-18T13:42:11.214Z,25.18
2023-09-18T13:52:17.505Z,24.71
2023-09-18T14:02:21.718Z,24.71
2023-09-18T14:12:26.996Z,24.42
2023-09-18T14:22:30.724Z,24.87
2023-09-18T14:32:37.243Z,25.22
2023-09-18T14:42:41.250Z,25.47
2023-09-18T14:52:46.365Z,25.47
2023-09-18T15:02:50.448Z,26.05
2023-09-18T15:12:56.104Z,25.54
2023-09-18T15:47:05.692Z,25.37
2023-09-18T15:57:44.026Z,24.86
2023-09-18T16:07:48.676Z,25.02
2023-09-18T16:17:53.681Z,24.33
2023-09-18T16:27:57.354Z,23.87
2023-09-18T16:38:02.599Z,23.57
2023-09-18T16:48:07.725Z,23.49
2023-09-18T16:58:12.855Z,23.23
2023-09-18T17:08:16.617Z,22.96
2023-09-18T17:18:21.724Z,22.71
2023-09-18T17:28:25.455Z,22.48
2023-09-18T17:38:30.590Z,22.23
2023-09-18T17:48:34.709Z,22.02
2023-09-18T17:58:41.233Z,22.09
2023-09-18T18:08:47.119Z,22.12
2023-09-18T18:18:53.314Z,22.09
2023-09-18T18:28:58.660Z,22.11
2023-09-18T18:51:31.528Z,21.87
2023-09-18T19:02:23.127Z,21.77
2023-09-18T19:12:28.520Z,21.61
2023-09-18T19:22:35.345Z,21.62
2023-09-18T19:32:42.629Z,21.65
2023-09-18T19:42:48.078Z,21.50
2023-09-18T19:52:51.967Z,21.49
2023-09-18T20:04:01.531Z,20.98
2023-09-18T20:14:30.643Z,20.74
2023-09-18T20:24:38.149Z,20.39
2023-09-18T20:34:42.495Z,20.31
2023-09-18T20:44:47.730Z,19.94
2023-09-18T20:54:52.533Z,19.75
2023-09-18T21:04:58.138Z,19.67
2023-09-18T21:15:03.013Z,19.44
2023-09-18T21:25:10.427Z,19.26
2023-09-18T21:35:14.224Z,19.11
2023-09-18T21:45:21.386Z,19.20
2023-09-18T21:55:25.255Z,19.16
2023-09-18T22:05:30.313Z,19.13
2023-09-18T22:15:34.052Z,18.94
2023-09-18T22:25:41.735Z,18.81
2023-09-18T22:35:46.022Z,18.67
2023-09-18T22:46:46.334Z,18.53
2023-09-18T22:56:51.708Z,18.55
2023-09-18T23:06:55.687Z,18.54
2023-09-18T23:17:07.397Z,18.54
2023-09-18T23:27:13.146Z,18.51
2023-09-18T23:37:19.034Z,18.44
2023-09-18T23:47:22.725Z,18.42
2023-09-18T23:57:28.616Z,18.45
